createdAt,value
2022-10-21T00:00:38.879Z,19.30
2022-10-21T00:03:11.975Z,19.30
2022-10-21T00:05:44.806Z,19.40
2022-10-21T00:08:18.379Z,19.40
2022-10-21T00:10:52.477Z,19.50
2022-10-21T00:13:25.847Z,19.50
2022-10-21T00:16:09.631Z,19.50
2022-10-21T00:18:43.703Z,19.50
2022-10-21T00:21:21.712Z,19.50
2022-10-21T00:23:54.582Z,19.60
2022-10-21T00:26:27.507Z,19.60
2022-10-21T00:29:00.812Z,19.60
2022-10-21T00:31:33.628Z,19.60
2022-10-21T00:34:06.713Z,19.60
2022-10-21T00:36:39.772Z,19.60
2022-10-21T00:39:15.162Z,19.60
2022-10-21T00:41:48.144Z,19.60
2022-10-21T00:44:21.033Z,19.60
2022-10-21T00:46:56.037Z,19.60
2022-10-21T00:49:42.444Z,19.50
2022-10-21T00:52:17.030Z,19.50
2022-10-21T00:54:52.176Z,19.50
2022-10-21T00:57:27.075Z,19.50
2022-10-21T01:00:01.820Z,19.50
2022-10-21T01:02:35.510Z,19.50
2022-10-21T01:05:10.387Z,19.40
2022-10-21T01:07:44.122Z,19.40
2022-10-21T01:10:17.447Z,19.40
2022-10-21T01:12:55.215Z,19.40
2022-10-21T01:15:32.634Z,19.40
2022-10-21T01:18:22.434Z,19.40
2022-10-21T01:21:28.703Z,19.40
2022-10-21T01:24:09.307Z,19.40
2022-10-21T01:26:50.454Z,19.50
2022-10-21T01:29:47.559Z,19.40
2022-10-21T01:32:37.681Z,19.40
2022-10-21T01:35:30.791Z,19.40
2022-10-21T01:38:05.764Z,19.40
2022-10-21T01:40:55.931Z,19.30
2022-10-21T01:43:50.710Z,19.30
2022-10-21T01:46:29.228Z,19.30
2022-10-21T01:49:03.661Z,19.30
2022-10-21T01:51:37.468Z,19.30
2022-10-21T01:54:17.604Z,19.30
2022-10-21T01:56:51.786Z,19.20
2022-10-21T01:59:26.413Z,19.20
2022-10-21T02:02:00.401Z,19.20
2022-10-21T02:04:34.892Z,19.20
2022-10-21T02:07:08.157Z,19.20
2022-10-21T02:09:43.387Z,19.20
2022-10-21T02:12:16.901Z,19.20
2022-10-21T02:14:51.453Z,19.20
2022-10-21T02:17:25.241Z,19.20
2022-10-21T02:20:00.304Z,19.20
2022-10-21T02:22:34.335Z,19.20
2022-10-21T02:25:15.058Z,19.20
2022-10-21T02:27:48.291Z,19.20
2022-10-21T02:30:21.394Z,19.20
2022-10-21T02:33:05.583Z,19.20
2022-10-21T02:35:48.803Z,19.20
2022-10-21T02:38:38.473Z,19.20
2022-10-21T02:41:13.073Z,19.20
2022-10-21T02:43:57.038Z,19.20
2022-10-21T02:46:31.655Z,19.20
2022-10-21T02:49:04.507Z,19.20
2022-10-21T02:51:37.429Z,19.20
2022-10-21T02:54:10.519Z,19.20
2022-10-21T02:56:43.394Z,19.20
2022-10-21T02:59:16.300Z,19.20
2022-10-21T03:01:49.571Z,19.20
2022-10-21T03:04:22.840Z,19.20
2022-10-21T03:06:55.758Z,19.20
2022-10-21T03:09:31.305Z,19.20
2022-10-21T03:12:04.237Z,19.20
2022-10-21T03:14:36.972Z,19.10
2022-10-21T03:17:09.892Z,19.10
2022-10-21T03:19:42.859Z,19.10
2022-10-21T03:22:15.833Z,19.10
2022-10-21T03:24:48.769Z,19.10
2022-10-21T03:27:21.930Z,19.10
2022-10-21T03:29:54.668Z,19.10
2022-10-21T03:32:27.694Z,19.10
2022-10-21T03:35:00.714Z,19.00
2022-10-21T03:37:33.658Z,19.10
2022-10-21T03:40:09.926Z,19.00
2022-10-21T03:42:42.250Z,19.00
2022-10-21T03:45:15.524Z,19.00
2022-10-21T03:47:49.500Z,19.00
2022-10-21T03:50:25.977Z,19.00
2022-10-21T03:52:57.022Z,19.00
2022-10-21T03:55:29.878Z,19.00
2022-10-21T03:58:02.786Z,19.00
2022-10-21T04:00:35.547Z,19.00
2022-10-21T04:03:08.464Z,18.90
2022-10-21T04:05:41.189Z,18.90
2022-10-21T04:08:14.110Z,18.90
2022-10-21T04:10:47.776Z,18.80
2022-10-21T04:13:20.732Z,18.80
2022-10-21T04:15:55.627Z,18.80
2022-10-21T04:18:28.670Z,18.70
2022-10-21T04:21:01.615Z,18.70
2022-10-21T04:23:34.576Z,18.70
2022-10-21T04:26:08.141Z,18.70
2022-10-21T04:28:41.375Z,18.70
2022-10-21T04:31:14.298Z,18.70
2022-10-21T04:33:47.026Z,18.60
2022-10-21T04:36:19.981Z,18.60
2022-10-21T04:38:53.059Z,18.60
2022-10-21T04:41:26.041Z,18.60
2022-10-21T04:43:59.052Z,18.60
2022-10-21T04:46:31.970Z,18.60
2022-10-21T04:49:04.732Z,18.60
2022-10-21T04:51:37.676Z,18.60
2022-10-21T04:54:10.836Z,18.60
2022-10-21T04:56:44.071Z,18.60
2022-10-21T04:59:16.939Z,18.60
2022-10-21T05:01:49.853Z,18.50
2022-10-21T05:04:22.828Z,18.50
2022-10-21T05:06:55.778Z,18.40
2022-10-21T05:09:29.346Z,18.30
2022-10-21T05:12:05.134Z,18.30
2022-10-21T05:14:38.048Z,18.20
2022-10-21T05:17:10.910Z,18.10
2022-10-21T05:19:43.833Z,18.10
2022-10-21T05:22:16.839Z,18.00
2022-10-21T05:24:50.153Z,18.00
2022-10-21T05:27:23.158Z,17.90
2022-10-21T05:29:56.299Z,17.80
2022-10-21T05:32:31.783Z,17.80
2022-10-21T05:35:04.802Z,17.70
2022-10-21T05:37:38.660Z,17.70
2022-10-21T05:40:12.446Z,17.60
2022-10-21T05:42:45.430Z,17.60
2022-10-21T05:45:18.578Z,17.50
2022-10-21T05:47:54.280Z,17.50
2022-10-21T05:50:27.306Z,17.40
2022-10-21T05:53:04.463Z,17.40
2022-10-21T05:55:37.506Z,17.40
2022-10-21T05:58:10.419Z,17.30
2022-10-21T06:00:44.023Z,17.30
2022-10-21T06:03:17.038Z,17.20
2022-10-21T06:05:49.986Z,17.20
2022-10-21T06:08:22.999Z,17.20
2022-10-21T06:11:12.966Z,17.10
2022-10-21T06:13:47.555Z,17.00
2022-10-21T06:16:21.040Z,17.00
2022-10-21T06:18:53.985Z,16.90
2022-10-21T06:21:27.027Z,16.90
2022-10-21T06:23:59.951Z,16.90
2022-10-21T06:26:36.081Z,16.80
2022-10-21T06:29:07.001Z,16.80
2022-10-21T06:31:39.976Z,16.80
2022-10-21T06:34:12.864Z,16.80
2022-10-21T06:36:45.622Z,16.80
2022-10-21T06:39:18.528Z,16.70
2022-10-21T06:41:51.507Z,16.70
2022-10-21T06:44:24.517Z,16.70
2022-10-21T06:46:57.437Z,16.70
2022-10-21T06:49:30.780Z,16.60
2022-10-21T06:52:03.612Z,16.60
2022-10-21T06:54:36.425Z,16.60
2022-10-21T06:57:09.264Z,16.60
2022-10-21T06:59:42.510Z,16.60
2022-10-21T07:02:15.271Z,16.60
2022-10-21T07:04:49.575Z,16.60
2022-10-21T07:07:22.815Z,16.60
2022-10-21T07:09:57.512Z,16.60
2022-10-21T07:12:32.406Z,16.50
2022-10-21T07:15:05.380Z,16.50
2022-10-21T07:17:38.508Z,16.50
2022-10-21T07:20:12.042Z,16.50
2022-10-21T07:22:45.001Z,16.50
2022-10-21T07:25:18.147Z,16.50
2022-10-21T07:27:52.625Z,16.50
2022-10-21T07:30:29.807Z,16.50
2022-10-21T07:33:02.545Z,16.50
2022-10-21T07:35:35.537Z,16.50
2022-10-21T07:38:08.324Z,16.40
2022-10-21T07:40:48.270Z,16.40
2022-10-21T07:43:21.098Z,16.40
2022-10-21T07:45:56.190Z,16.40
2022-10-21T07:48:29.173Z,16.40
2022-10-21T07:51:09.699Z,16.40
2022-10-21T07:53:43.170Z,16.40
2022-10-21T07:56:21.259Z,16.40
2022-10-21T07:58:54.713Z,16.40
2022-10-21T08:01:27.779Z,16.40
2022-10-21T08:04:01.012Z,16.50
2022-10-21T08:06:34.329Z,16.50
2022-10-21T08:09:08.033Z,16.50
2022-10-21T08:11:41.262Z,16.50
2022-10-21T08:14:14.804Z,16.40
2022-10-21T08:16:47.897Z,16.40
2022-10-21T08:19:26.645Z,16.40
2022-10-21T08:22:00.091Z,16.40
2022-10-21T08:24:32.887Z,16.40
2022-10-21T08:27:06.964Z,16.40
2022-10-21T08:29:40.274Z,16.40
2022-10-21T08:32:13.585Z,16.40
2022-10-21T08:34:47.103Z,16.40
2022-10-21T08:37:24.748Z,16.40
2022-10-21T08:39:54.244Z,16.40
2022-10-21T08:42:27.559Z,16.40
2022-10-21T08:45:05.721Z,16.40
2022-10-21T08:47:47.755Z,16.40
2022-10-21T08:50:29.139Z,16.40
2022-10-21T08:53:03.754Z,16.40
2022-10-21T08:55:38.300Z,16.30
2022-10-21T08:58:15.369Z,16.30
2022-10-21T09:00:53.914Z,16.30
2022-10-21T09:03:32.028Z,16.30
2022-10-21T09:06:18.685Z,16.30
2022-10-21T09:09:22.666Z,16.30
2022-10-21T09:12:19.144Z,16.30
2022-10-21T09:14:58.014Z,16.30
2022-10-21T09:17:51.208Z,16.30
2022-10-21T09:20:41.328Z,16.20
2022-10-21T09:23:28.177Z,16.20
2022-10-21T09:26:05.832Z,16.20
2022-10-21T09:28:38.993Z,16.20
2022-10-21T09:31:23.029Z,16.30
2022-10-21T09:34:00.970Z,16.20
2022-10-21T09:36:41.776Z,16.30
2022-10-21T09:39:25.374Z,16.30
2022-10-21T09:42:01.685Z,16.20
2022-10-21T09:44:34.045Z,16.30
2022-10-21T09:47:08.924Z,16.20
2022-10-21T09:50:05.950Z,16.20
2022-10-21T09:52:16.764Z,16.20
2022-10-21T09:54:50.670Z,16.30
2022-10-21T09:57:28.616Z,16.30
2022-10-21T10:00:08.212Z,16.20
2022-10-21T10:02:43.306Z,16.20
2022-10-21T10:05:50.443Z,16.20
2022-10-21T10:08:43.873Z,16.20
2022-10-21T10:11:19.029Z,16.20
2022-10-21T10:13:53.803Z,16.20
2022-10-21T10:16:35.361Z,16.20
2022-10-21T10:19:29.110Z,16.30
2022-10-21T10:22:23.495Z,16.30
2022-10-21T10:24:56.367Z,16.30
2022-10-21T10:27:29.345Z,16.20
2022-10-21T10:30:04.020Z,16.20
2022-10-21T10:32:41.436Z,16.20
2022-10-21T10:35:32.793Z,16.20
2022-10-21T10:38:06.597Z,16.20
2022-10-21T10:40:41.462Z,16.10
2022-10-21T10:43:25.198Z,15.90
2022-10-21T10:45:59.853Z,15.80
2022-10-21T10:48:43.738Z,15.70
2022-10-21T10:51:30.972Z,15.60
2022-10-21T10:54:23.530Z,15.60
2022-10-21T10:57:14.748Z,15.60
2022-10-21T10:59:53.562Z,15.50
2022-10-21T11:02:40.836Z,15.40
2022-10-21T11:05:18.459Z,15.30
2022-10-21T11:08:05.403Z,15.20
2022-10-21T11:10:49.674Z,15.20
2022-10-21T11:13:24.772Z,15.20
2022-10-21T11:16:07.338Z,15.20
2022-10-21T11:18:58.707Z,15.10
2022-10-21T11:21:53.194Z,15.10
2022-10-21T11:24:33.768Z,15.00
2022-10-21T11:27:28.063Z,15.00
2022-10-21T11:30:03.246Z,15.00
2022-10-21T11:32:54.742Z,14.90
2022-10-21T11:35:35.652Z,14.90
2022-10-21T11:38:42.562Z,14.90
2022-10-21T11:41:28.053Z,14.80
2022-10-21T11:44:18.708Z,14.60
2022-10-21T11:47:11.081Z,14.50
2022-10-21T11:49:48.767Z,14.40
2022-10-21T11:52:35.395Z,14.30
2022-10-21T11:55:19.188Z,14.30
2022-10-21T11:58:09.988Z,14.20
2022-10-21T12:01:07.420Z,14.20
2022-10-21T12:04:15.385Z,14.10
2022-10-21T12:06:52.877Z,14.00
2022-10-21T12:09:39.955Z,14.00
2022-10-21T12:12:27.248Z,14.00
2022-10-21T12:15:02.362Z,13.90
2022-10-21T12:20:11.787Z,14.00
2022-10-21T12:22:44.824Z,13.90
2022-10-21T12:25:22.293Z,13.90
2022-10-21T12:28:03.696Z,13.90
2022-10-21T12:30:44.252Z,13.90
2022-10-21T12:33:22.207Z,13.90
2022-10-21T12:36:00.099Z,13.90
2022-10-21T12:38:47.141Z,13.90
2022-10-21T12:41:35.354Z,13.90
2022-10-21T12:44:10.219Z,13.90
2022-10-21T12:46:45.532Z,13.90
2022-10-21T12:49:33.294Z,13.90
2022-10-21T12:52:17.629Z,13.90
2022-10-21T12:54:52.663Z,13.80
2022-10-21T12:57:36.271Z,13.80
2022-10-21T13:00:32.527Z,13.80
2022-10-21T13:03:19.487Z,13.80
2022-10-21T13:05:54.741Z,13.80
2022-10-21T13:08:33.479Z,13.70
2022-10-21T13:11:08.693Z,13.70
2022-10-21T13:13:49.443Z,13.70
2022-10-21T13:16:27.590Z,13.80
2022-10-21T13:19:05.182Z,13.70
2022-10-21T13:21:53.724Z,13.70
2022-10-21T13:24:31.774Z,13.70
2022-10-21T13:27:06.979Z,13.70
2022-10-21T13:29:41.836Z,13.80
2022-10-21T13:32:20.634Z,13.70
2022-10-21T13:35:01.389Z,13.70
2022-10-21T13:37:36.981Z,13.70
2022-10-21T13:40:12.294Z,13.70
2022-10-21T13:42:47.540Z,13.70
2022-10-21T13:45:31.208Z,13.70
2022-10-21T13:48:08.820Z,13.70
2022-10-21T13:50:43.410Z,13.70
2022-10-21T13:53:35.600Z,13.70
2022-10-21T13:56:10.501Z,13.70
2022-10-21T13:58:44.180Z,13.60
2022-10-21T14:01:20.425Z,13.60
2022-10-21T14:03:54.444Z,13.60
2022-10-21T14:06:33.376Z,13.60
2022-10-21T14:09:09.057Z,13.70
2022-10-21T14:11:50.607Z,13.70
2022-10-21T14:14:25.270Z,13.60
2022-10-21T14:17:12.709Z,13.70
2022-10-21T14:19:48.838Z,13.70
2022-10-21T14:22:26.961Z,13.70
2022-10-21T14:25:04.893Z,13.70
2022-10-21T14:27:39.120Z,13.70
2022-10-21T14:30:14.170Z,13.70
2022-10-21T14:32:46.998Z,13.70
2022-10-21T14:35:22.200Z,13.70
2022-10-21T14:37:57.239Z,13.70
2022-10-21T14:40:38.320Z,13.80
2022-10-21T14:43:26.005Z,13.80
2022-10-21T14:45:59.428Z,13.70
2022-10-21T14:48:49.380Z,13.70
2022-10-21T14:51:24.504Z,13.70
2022-10-21T14:54:06.748Z,13.70
2022-10-21T14:56:48.462Z,13.70
2022-10-21T14:59:29.113Z,13.70
2022-10-21T15:02:03.539Z,13.70
2022-10-21T15:04:56.699Z,13.70
2022-10-21T15:07:44.701Z,13.70
2022-10-21T15:10:22.474Z,13.70
2022-10-21T15:12:55.568Z,13.70
2022-10-21T15:15:52.577Z,13.70
2022-10-21T15:18:34.442Z,13.70
2022-10-21T15:21:09.633Z,13.70
2022-10-21T15:23:59.982Z,13.70
2022-10-21T15:26:34.697Z,13.70
2022-10-21T15:29:18.584Z,13.70
2022-10-21T15:31:51.563Z,13.70
2022-10-21T15:34:24.441Z,13.70
2022-10-21T15:36:57.363Z,13.70
2022-10-21T15:39:30.503Z,13.80
2022-10-21T15:42:03.921Z,13.80
2022-10-21T15:44:37.491Z,13.80
2022-10-21T15:47:11.729Z,13.80
2022-10-21T15:49:47.158Z,13.80
2022-10-21T15:52:20.419Z,13.80
2022-10-21T15:54:53.361Z,13.80
2022-10-21T15:57:27.440Z,13.80
2022-10-21T16:00:00.260Z,13.80
2022-10-21T16:02:33.042Z,13.80
2022-10-21T16:05:05.884Z,13.80
2022-10-21T16:07:39.334Z,13.80
2022-10-21T16:10:23.041Z,13.80
2022-10-21T16:12:56.844Z,13.80
2022-10-21T16:15:30.121Z,13.80
2022-10-21T16:18:03.136Z,13.80
2022-10-21T16:20:37.540Z,13.80
2022-10-21T16:23:10.639Z,13.80
2022-10-21T16:25:43.477Z,13.80
2022-10-21T16:28:17.634Z,13.80
2022-10-21T16:30:50.621Z,13.80
2022-10-21T16:33:23.523Z,13.80
2022-10-21T16:35:56.412Z,13.80
2022-10-21T16:38:29.677Z,13.70
2022-10-21T16:41:02.516Z,13.80
2022-10-21T16:43:35.324Z,13.70
2022-10-21T16:46:08.357Z,13.70
2022-10-21T16:48:41.339Z,13.70
2022-10-21T16:51:14.922Z,13.70
2022-10-21T16:53:47.826Z,13.70
2022-10-21T16:56:21.009Z,13.70
2022-10-21T16:58:54.456Z,13.70
2022-10-21T17:01:28.514Z,13.70
2022-10-21T17:04:01.352Z,13.70
2022-10-21T17:06:34.196Z,13.70
2022-10-21T17:09:07.238Z,13.70
2022-10-21T17:11:44.513Z,13.70
2022-10-21T17:14:19.442Z,13.70
2022-10-21T17:16:52.225Z,13.70
2022-10-21T17:19:28.640Z,13.70
2022-10-21T17:22:02.006Z,13.70
2022-10-21T17:24:34.719Z,13.60
2022-10-21T17:27:07.590Z,13.60
2022-10-21T17:29:40.702Z,13.60
2022-10-21T17:32:14.815Z,13.60
2022-10-21T17:34:47.679Z,13.60
2022-10-21T17:37:20.716Z,13.60
2022-10-21T17:39:53.422Z,13.60
2022-10-21T17:42:26.358Z,13.70
2022-10-21T17:45:02.882Z,13.70
2022-10-21T17:47:34.181Z,13.70
2022-10-21T17:50:07.105Z,13.70
2022-10-21T17:52:40.830Z,13.70
2022-10-21T17:55:15.026Z,13.80
2022-10-21T17:57:48.275Z,13.80
2022-10-21T18:00:21.110Z,13.80
2022-10-21T18:02:54.359Z,13.80
2022-10-21T18:05:27.504Z,13.80
2022-10-21T18:08:00.506Z,13.80
2022-10-21T18:10:33.477Z,13.80
2022-10-21T18:13:06.687Z,13.80
2022-10-21T18:15:41.579Z,13.80
2022-10-21T18:18:14.781Z,13.80
2022-10-21T18:20:47.694Z,13.90
2022-10-21T18:23:20.877Z,13.90
2022-10-21T18:25:53.792Z,13.90
2022-10-21T18:28:30.355Z,13.90
2022-10-21T18:31:01.731Z,13.90
2022-10-21T18:33:34.733Z,13.90
2022-10-21T18:36:22.814Z,13.90
2022-10-21T18:38:55.775Z,13.90
2022-10-21T18:41:28.641Z,13.90
2022-10-21T18:44:06.776Z,14.00
2022-10-21T18:46:41.985Z,14.00
2022-10-21T18:49:16.546Z,14.10
2022-10-21T18:51:50.446Z,14.20
2022-10-21T18:54:23.209Z,14.20
2022-10-21T18:56:56.151Z,14.30
2022-10-21T18:59:28.992Z,14.30
2022-10-21T19:02:01.908Z,14.40
2022-10-21T19:04:34.724Z,14.40
2022-10-21T19:07:07.645Z,14.40
2022-10-21T19:09:40.460Z,14.40
2022-10-21T19:12:17.421Z,14.50
2022-10-21T19:14:47.944Z,14.50
2022-10-21T19:17:21.666Z,14.60
2022-10-21T19:19:54.664Z,14.70
2022-10-21T19:22:28.056Z,14.70
2022-10-21T19:25:01.012Z,14.80
2022-10-21T19:27:38.474Z,14.90
2022-10-21T19:30:12.391Z,14.90
2022-10-21T19:32:45.221Z,15.00
2022-10-21T19:35:18.060Z,15.00
2022-10-21T19:37:50.937Z,15.00
2022-10-21T19:40:24.035Z,15.10
2022-10-21T19:42:56.966Z,15.20
2022-10-21T19:45:30.061Z,15.20
2022-10-21T19:48:02.810Z,15.30
2022-10-21T19:50:35.745Z,15.30
2022-10-21T19:53:08.753Z,15.40
2022-10-21T19:55:41.691Z,15.40
2022-10-21T19:58:14.720Z,15.50
2022-10-21T20:00:47.675Z,15.50
2022-10-21T20:03:20.554Z,15.50
2022-10-21T20:05:53.487Z,15.60
2022-10-21T20:11:05.968Z,15.70
2022-10-21T20:13:38.832Z,15.70
2022-10-21T20:16:13.626Z,15.80
2022-10-21T20:18:46.463Z,15.80
2022-10-21T20:21:19.579Z,15.90
2022-10-21T20:23:52.470Z,15.90
2022-10-21T20:26:26.204Z,16.00
2022-10-21T20:28:59.141Z,16.00
2022-10-21T20:31:32.435Z,16.10
2022-10-21T20:34:09.577Z,16.10
2022-10-21T20:36:42.429Z,16.20
2022-10-21T20:39:15.485Z,16.20
2022-10-21T20:41:48.902Z,16.20
2022-10-21T20:44:21.940Z,16.20
2022-10-21T20:46:54.956Z,16.20
2022-10-21T20:49:27.943Z,16.20
2022-10-21T20:52:00.781Z,16.20
2022-10-21T20:54:34.928Z,16.30
2022-10-21T20:57:09.110Z,16.30
2022-10-21T20:59:42.075Z,16.40
2022-10-21T21:02:14.903Z,16.50
2022-10-21T21:04:47.939Z,16.50
2022-10-21T21:07:20.937Z,16.60
2022-10-21T21:10:02.335Z,16.70
2022-10-21T21:12:27.899Z,16.70
2022-10-21T21:15:00.694Z,16.80
2022-10-21T21:17:34.742Z,16.80
2022-10-21T21:20:08.224Z,16.90
2022-10-21T21:22:44.932Z,17.00
2022-10-21T21:25:19.154Z,17.00
2022-10-21T21:27:53.049Z,17.10
2022-10-21T21:30:26.614Z,17.20
2022-10-21T21:33:00.060Z,17.20
2022-10-21T21:35:34.110Z,17.30
2022-10-21T21:38:07.612Z,17.30
2022-10-21T21:40:41.353Z,17.40
2022-10-21T21:43:15.765Z,17.40
2022-10-21T21:45:54.917Z,17.50
2022-10-21T21:48:31.725Z,17.50
2022-10-21T21:51:15.947Z,17.50
2022-10-21T21:53:50.218Z,17.60
2022-10-21T21:56:27.389Z,17.60
2022-10-21T21:59:01.304Z,17.70
2022-10-21T22:01:35.113Z,17.70
2022-10-21T22:04:08.627Z,17.80
2022-10-21T22:06:42.520Z,17.80
2022-10-21T22:09:16.287Z,17.80
2022-10-21T22:11:49.554Z,17.80
2022-10-21T22:14:22.863Z,17.90
2022-10-21T22:16:56.332Z,17.90
2022-10-21T22:19:29.799Z,17.90
2022-10-21T22:22:08.494Z,18.00
2022-10-21T22:24:42.746Z,18.00
2022-10-21T22:27:17.089Z,18.00
2022-10-21T22:29:50.620Z,18.00
2022-10-21T22:32:23.922Z,18.00
2022-10-21T22:34:57.754Z,18.00
2022-10-21T22:37:33.434Z,18.10
2022-10-21T22:40:12.826Z,18.10
2022-10-21T22:42:46.421Z,18.10
2022-10-21T22:45:20.223Z,18.10
2022-10-21T22:47:53.554Z,18.20
2022-10-21T22:50:26.425Z,18.20
2022-10-21T22:52:59.375Z,18.20
2022-10-21T22:55:32.675Z,18.20
2022-10-21T22:58:05.335Z,18.20
2022-10-21T23:00:38.240Z,18.30
2022-10-21T23:03:11.143Z,18.30
2022-10-21T23:05:43.983Z,18.30
2022-10-21T23:08:17.008Z,18.30
2022-10-21T23:10:53.714Z,18.40
2022-10-21T23:13:26.644Z,18.40
2022-10-21T23:15:59.491Z,18.50
2022-10-21T23:18:32.310Z,18.50
2022-10-21T23:21:05.271Z,18.60
2022-10-21T23:23:38.114Z,18.60
2022-10-21T23:26:11.770Z,18.60
2022-10-21T23:28:44.618Z,18.60
2022-10-21T23:31:17.464Z,18.60
2022-10-21T23:33:50.666Z,18.70
2022-10-21T23:36:23.620Z,18.70
2022-10-21T23:38:58.159Z,18.70
2022-10-21T23:41:31.164Z,18.70
2022-10-21T23:44:04.649Z,18.70
2022-10-21T23:46:37.649Z,18.80
2022-10-21T23:49:10.620Z,18.80
2022-10-21T23:51:43.748Z,18.80
2022-10-21T23:54:16.489Z,18.80
2022-10-21T23:56:49.254Z,18.80
2022-10-21T23:59:23.493Z,18.90
